This is the latest recevied weather packets stored in our database for station/object DB0ROB-10. If no packets are shown the sender has not sent any weather packets the latest 10 day(s).
| Time | Temp. | Humidity | Pressure | Rain* | Wind** | Luminosity | Snow |
|---|---|---|---|---|---|---|---|
| 1778068003 | 13.89° C | 50% | 1006.7 hPa | - | - | - | - |
| 1778067102 | 12.78° C | 63% | 1006.7 hPa | - | - | - | - |
| 1778066202 | 12.78° C | 71% | 1007 hPa | - | - | - | - |
| 1778065301 | 13.33° C | 73% | 1007.1 hPa | - | - | - | - |
| 1778064400 | 13.33° C | 68% | 1007 hPa | - | - | - | - |
| 1778063500 | 15° C | 55% | 1007.1 hPa | - | - | - | - |
| 1778062599 | 16.11° C | 52% | 1007.1 hPa | - | - | - | - |
| 1778061699 | 17.22° C | 46% | 1007.2 hPa | - | - | - | - |
| 1778060799 | 16.67° C | 48% | 1007.3 hPa | - | - | - | - |
| 1778059899 | 18.89° C | 43% | 1007.1 hPa | - | - | - | - |
| 1778058999 | 16.67° C | 49% | 1007.2 hPa | - | - | - | - |
| 1778058099 | 17.78° C | 52% | 1007.2 hPa | - | - | - | - |
| 1778057198 | 17.78° C | 49% | 1007.1 hPa | - | - | - | - |
| 1778056297 | 15° C | 58% | 1007.1 hPa | - | - | - | - |
| 1778055397 | 16.11° C | 54% | 1007 hPa | - | - | - | - |
| 1778054497 | 16.67° C | 49% | 1007.1 hPa | - | - | - | - |
| 1778053604 | 16.67° C | 50% | 1007.1 hPa | - | - | - | - |
| 1778052704 | 15° C | 57% | 1007.2 hPa | - | - | - | - |
| 1778051804 | 15° C | 57% | 1007 hPa | - | - | - | - |
| 1778050904 | 13.89° C | 59% | 1007 hPa | - | - | - | - |
| 1778050004 | 15° C | 55% | 1006.9 hPa | - | - | - | - |
| 1778049104 | 12.78° C | 62% | 1006.9 hPa | - | - | - | - |
| 1778048203 | 12.78° C | 63% | 1007 hPa | - | - | - | - |
| 1778047302 | 11.67° C | 67% | 1007 hPa | - | - | - | - |
| 1778046401 | 11.67° C | 66% | 1007.1 hPa | - | - | - | - |
* Rain since midnight (hover to see other rain measurements)
** Current wind speed in m/s (hover to see current wind gust speed)